createdAt,value
2022-10-06T00:00:02.176Z,17.80
2022-10-06T00:02:28.865Z,16.02
2022-10-06T00:04:57.801Z,18.60
2022-10-06T00:07:24.474Z,20.40
2022-10-06T00:09:51.076Z,18.77
2022-10-06T00:12:17.971Z,17.55
2022-10-06T00:14:44.692Z,15.25
2022-10-06T00:17:11.264Z,21.13
2022-10-06T00:19:37.787Z,19.95
2022-10-06T00:22:04.290Z,17.55
2022-10-06T00:24:32.161Z,15.73
2022-10-06T00:26:58.640Z,14.73
2022-10-06T00:29:25.835Z,21.85
2022-10-06T00:31:52.374Z,19.13
2022-10-06T00:34:18.935Z,14.40
2022-10-06T00:36:45.835Z,17.02
2022-10-06T00:39:12.419Z,17.85
2022-10-06T00:41:39.349Z,18.20
2022-10-06T00:44:05.935Z,17.38
2022-10-06T00:46:38.569Z,13.95
2022-10-06T00:49:12.589Z,13.20
2022-10-06T00:51:42.793Z,18.25
2022-10-06T00:54:10.031Z,19.35
2022-10-06T00:56:39.758Z,17.63
2022-10-06T00:59:12.258Z,14.57
2022-10-06T01:01:41.876Z,18.05
2022-10-06T01:04:12.609Z,18.95
2022-10-06T01:06:50.288Z,15.80
2022-10-06T01:09:17.885Z,16.60
2022-10-06T01:11:47.272Z,12.65
2022-10-06T01:14:14.840Z,16.52
2022-10-06T01:16:45.864Z,13.48
2022-10-06T01:19:24.596Z,12.60
2022-10-06T01:21:53.713Z,17.40
2022-10-06T01:24:20.467Z,17.10
2022-10-06T01:26:51.984Z,17.63
2022-10-06T01:29:19.016Z,25.58
2022-10-06T01:31:45.801Z,19.27
2022-10-06T01:34:12.381Z,17.10
2022-10-06T01:36:41.440Z,14.55
2022-10-06T01:39:08.200Z,17.17
2022-10-06T01:41:34.818Z,13.82
2022-10-06T01:44:01.347Z,19.48
2022-10-06T01:46:29.985Z,15.32
2022-10-06T01:48:56.611Z,15.10
2022-10-06T01:51:23.226Z,24.27
2022-10-06T01:53:49.894Z,25.02
2022-10-06T01:56:16.438Z,17.88
2022-10-06T01:58:43.081Z,14.63
2022-10-06T02:01:10.519Z,21.77
2022-10-06T02:03:39.008Z,16.27
2022-10-06T02:06:06.485Z,17.70
2022-10-06T02:08:33.279Z,17.60
2022-10-06T02:11:05.080Z,15.18
2022-10-06T02:13:32.217Z,17.30
2022-10-06T02:15:58.976Z,13.85
2022-10-06T02:18:26.554Z,15.02
2022-10-06T02:20:53.667Z,21.00
2022-10-06T02:23:20.170Z,17.67
2022-10-06T02:25:46.885Z,17.33
2022-10-06T02:28:14.032Z,13.48
2022-10-06T02:30:40.864Z,17.70
2022-10-06T02:33:07.731Z,17.13
2022-10-06T02:35:34.255Z,16.10
2022-10-06T02:38:00.794Z,13.65
2022-10-06T02:40:27.412Z,18.10
2022-10-06T02:42:54.043Z,18.33
2022-10-06T02:45:20.599Z,20.80
2022-10-06T02:47:47.137Z,22.63
2022-10-06T02:50:13.920Z,20.00
2022-10-06T02:52:42.870Z,22.75
2022-10-06T02:55:10.212Z,18.08
2022-10-06T02:57:36.842Z,17.17
2022-10-06T03:00:07.344Z,19.40
2022-10-06T03:02:34.502Z,15.55
2022-10-06T03:05:01.235Z,17.90
2022-10-06T03:07:27.899Z,22.35
2022-10-06T03:09:54.454Z,17.30
2022-10-06T03:12:21.286Z,18.42
2022-10-06T03:14:47.919Z,16.55
2022-10-06T03:17:14.612Z,19.92
2022-10-06T03:19:41.170Z,17.40
2022-10-06T03:22:07.890Z,18.95
2022-10-06T03:24:35.114Z,17.55
2022-10-06T03:27:01.804Z,15.52
2022-10-06T03:29:31.158Z,20.65
2022-10-06T03:31:58.623Z,16.42
2022-10-06T03:34:25.251Z,16.75
2022-10-06T03:36:51.934Z,16.50
2022-10-06T03:39:18.512Z,20.13
2022-10-06T03:41:45.500Z,16.77
2022-10-06T03:44:11.985Z,27.38
2022-10-06T03:46:38.903Z,17.88
2022-10-06T03:49:05.593Z,16.85
2022-10-06T03:51:38.977Z,22.90
2022-10-06T03:54:07.826Z,15.77
2022-10-06T03:56:36.729Z,24.10
2022-10-06T03:59:09.284Z,20.77
2022-10-06T04:01:44.085Z,23.65
2022-10-06T04:04:12.004Z,21.92
2022-10-06T04:06:41.504Z,24.25
2022-10-06T04:09:14.932Z,21.25
2022-10-06T04:11:43.240Z,16.83
2022-10-06T04:14:13.126Z,19.13
2022-10-06T04:16:45.898Z,18.55
2022-10-06T04:19:13.970Z,17.77
2022-10-06T04:21:43.456Z,19.50
2022-10-06T04:24:11.585Z,18.25
2022-10-06T04:26:46.723Z,23.13
2022-10-06T04:29:13.996Z,21.08
2022-10-06T04:31:42.557Z,21.42
2022-10-06T04:34:11.964Z,22.45
2022-10-06T04:36:41.145Z,21.83
2022-10-06T04:39:10.896Z,23.65
2022-10-06T04:41:40.925Z,21.55
2022-10-06T04:44:08.855Z,24.40
2022-10-06T04:46:44.688Z,24.25
2022-10-06T04:49:19.011Z,23.55
2022-10-06T04:51:46.691Z,25.10
2022-10-06T04:54:13.256Z,24.55
2022-10-06T04:56:39.936Z,21.15
2022-10-06T04:59:06.636Z,23.05
2022-10-06T05:01:37.684Z,24.98
2022-10-06T05:04:06.246Z,29.05
2022-10-06T05:06:35.864Z,26.20
2022-10-06T05:09:05.665Z,27.38
2022-10-06T05:11:33.348Z,24.58
2022-10-06T05:14:00.069Z,23.50
2022-10-06T05:16:29.541Z,25.17
2022-10-06T05:18:56.838Z,25.67
2022-10-06T05:21:29.574Z,25.48
2022-10-06T05:23:56.394Z,20.67
2022-10-06T05:26:26.704Z,21.55
2022-10-06T05:28:53.623Z,31.27
2022-10-06T05:31:24.665Z,29.85
2022-10-06T05:33:51.517Z,24.15
2022-10-06T05:36:21.013Z,21.35
2022-10-06T05:38:48.105Z,24.15
2022-10-06T05:41:24.199Z,26.33
2022-10-06T05:43:51.247Z,22.58
2022-10-06T05:46:20.851Z,27.05
2022-10-06T05:48:49.370Z,27.50
2022-10-06T05:51:17.240Z,25.58
2022-10-06T05:53:44.362Z,21.80
2022-10-06T05:56:14.029Z,22.70
2022-10-06T05:58:43.416Z,27.38
2022-10-06T06:01:14.987Z,29.75
2022-10-06T06:03:46.516Z,26.80
2022-10-06T06:06:42.550Z,21.20
2022-10-06T06:09:12.466Z,24.05
2022-10-06T06:11:46.094Z,28.50
2022-10-06T06:14:18.158Z,29.80
2022-10-06T06:16:46.480Z,31.08
2022-10-06T06:19:14.537Z,27.40
2022-10-06T06:21:44.084Z,21.40
2022-10-06T06:24:10.655Z,32.78
2022-10-06T06:26:38.162Z,28.00
2022-10-06T06:29:06.359Z,23.88
2022-10-06T06:31:35.512Z,25.48
2022-10-06T06:34:04.809Z,26.20
2022-10-06T06:36:37.216Z,27.20
2022-10-06T06:39:06.942Z,23.90
2022-10-06T06:41:37.937Z,26.58
2022-10-06T06:44:06.891Z,26.95
2022-10-06T06:49:06.283Z,23.27
2022-10-06T06:51:34.642Z,22.67
2022-10-06T06:54:02.676Z,24.17
2022-10-06T06:56:35.344Z,23.02
2022-10-06T06:59:03.610Z,25.95
2022-10-06T07:01:30.695Z,24.40
2022-10-06T07:03:59.281Z,31.90
2022-10-06T07:06:28.701Z,22.05
2022-10-06T07:08:57.572Z,19.63
2022-10-06T07:11:27.255Z,25.90
2022-10-06T07:14:01.127Z,21.40
2022-10-06T07:16:48.519Z,21.05
2022-10-06T07:19:36.745Z,22.73
2022-10-06T07:22:27.938Z,18.33
2022-10-06T07:25:08.293Z,17.70
2022-10-06T07:27:42.467Z,17.92
2022-10-06T07:30:11.730Z,13.95
2022-10-06T07:32:38.738Z,12.52
2022-10-06T07:35:06.624Z,16.13
2022-10-06T07:37:37.229Z,17.35
2022-10-06T07:40:07.817Z,19.05
2022-10-06T07:42:55.424Z,21.75
2022-10-06T07:45:41.771Z,21.17
2022-10-06T07:48:18.185Z,20.17
2022-10-06T07:50:48.094Z,15.32
2022-10-06T07:53:16.814Z,18.65
2022-10-06T07:55:46.381Z,16.85
2022-10-06T07:58:23.550Z,18.38
2022-10-06T08:00:54.096Z,21.08
2022-10-06T08:03:21.205Z,19.85
2022-10-06T08:05:58.716Z,20.67
2022-10-06T08:08:25.301Z,23.15
2022-10-06T08:10:54.013Z,23.35
2022-10-06T08:13:20.868Z,27.40
2022-10-06T08:15:50.019Z,26.17
2022-10-06T08:18:41.096Z,24.35
2022-10-06T08:21:10.289Z,30.88
2022-10-06T08:23:40.568Z,28.80
2022-10-06T08:26:07.174Z,24.30
2022-10-06T08:28:35.345Z,28.35
2022-10-06T08:31:07.335Z,25.08
2022-10-06T08:33:36.003Z,20.52
2022-10-06T08:36:05.367Z,23.67
2022-10-06T08:38:32.432Z,25.73
2022-10-06T08:40:59.009Z,22.63
2022-10-06T08:43:27.294Z,26.27
2022-10-06T08:45:59.816Z,27.02
2022-10-06T08:48:30.073Z,22.10
2022-10-06T08:51:09.018Z,20.80
2022-10-06T08:53:47.100Z,27.15
2022-10-06T08:56:23.120Z,19.33
2022-10-06T08:58:57.522Z,27.50
2022-10-06T09:01:30.465Z,31.05
2022-10-06T09:04:07.691Z,29.05
2022-10-06T09:07:11.766Z,32.55
2022-10-06T09:09:54.044Z,34.13
2022-10-06T09:12:36.999Z,29.45
2022-10-06T09:15:35.130Z,24.77
2022-10-06T09:18:08.327Z,29.17
2022-10-06T09:20:37.273Z,25.85
2022-10-06T09:23:09.637Z,30.05
2022-10-06T09:25:37.906Z,27.77
2022-10-06T09:28:11.693Z,28.98
2022-10-06T09:30:38.326Z,35.38
2022-10-06T09:33:05.953Z,37.85
2022-10-06T09:35:32.880Z,32.90
2022-10-06T09:38:08.337Z,45.30
2022-10-06T09:40:46.502Z,37.47
2022-10-06T09:43:23.834Z,36.75
2022-10-06T09:45:51.608Z,39.63
2022-10-06T09:48:26.443Z,38.40
2022-10-06T09:51:12.285Z,33.47
2022-10-06T09:53:39.756Z,39.08
2022-10-06T09:56:14.908Z,41.97
2022-10-06T09:58:54.927Z,40.03
2022-10-06T10:01:27.693Z,39.58
2022-10-06T10:04:20.506Z,40.05
2022-10-06T10:06:47.055Z,39.30
2022-10-06T10:09:21.927Z,34.40
2022-10-06T10:12:28.057Z,42.58
2022-10-06T10:14:56.787Z,37.97
2022-10-06T10:17:38.389Z,38.65
2022-10-06T10:22:38.978Z,35.55
2022-10-06T10:25:05.488Z,42.73
2022-10-06T10:28:18.504Z,37.10
2022-10-06T10:31:31.345Z,37.85
2022-10-06T10:34:12.481Z,35.75
2022-10-06T10:36:54.484Z,35.58
2022-10-06T10:39:42.334Z,32.38
2022-10-06T10:42:37.396Z,28.73
2022-10-06T10:45:13.720Z,36.50
2022-10-06T10:47:45.043Z,35.17
2022-10-06T10:50:22.827Z,31.15
2022-10-06T10:52:54.742Z,31.33
2022-10-06T10:55:29.700Z,28.77
2022-10-06T10:58:04.161Z,28.13
2022-10-06T11:00:36.211Z,32.47
2022-10-06T11:03:02.825Z,36.67
2022-10-06T11:05:48.147Z,29.77
2022-10-06T11:08:19.085Z,33.10
2022-10-06T11:10:48.443Z,30.02
2022-10-06T11:13:20.023Z,28.63
2022-10-06T11:16:10.632Z,30.05
2022-10-06T11:19:15.148Z,27.30
2022-10-06T11:22:12.441Z,24.10
2022-10-06T11:25:19.637Z,27.17
2022-10-06T11:28:28.070Z,24.45
2022-10-06T11:31:21.825Z,28.63
2022-10-06T11:33:54.393Z,29.35
2022-10-06T11:36:42.570Z,32.85
2022-10-06T11:39:33.035Z,28.77
2022-10-06T11:42:20.654Z,25.48
2022-10-06T11:44:59.201Z,28.75
2022-10-06T11:47:50.847Z,31.40
2022-10-06T11:53:37.112Z,28.70
2022-10-06T11:56:19.155Z,27.50
2022-10-06T11:58:53.370Z,24.20
2022-10-06T12:01:35.278Z,24.65
2022-10-06T12:04:08.205Z,22.65
2022-10-06T12:06:44.002Z,20.30
2022-10-06T12:09:30.993Z,25.80
2022-10-06T12:12:17.849Z,34.60
2022-10-06T12:18:25.409Z,25.88
2022-10-06T12:21:19.568Z,28.50
2022-10-06T12:26:59.199Z,22.77
2022-10-06T12:29:28.833Z,27.00
2022-10-06T12:32:03.405Z,30.42
2022-10-06T12:34:43.967Z,33.92
2022-10-06T12:37:41.432Z,19.03
2022-10-06T12:40:46.940Z,21.17
2022-10-06T12:43:19.776Z,22.55
2022-10-06T12:45:58.546Z,19.23
2022-10-06T12:48:41.516Z,20.15
2022-10-06T12:51:42.308Z,16.00
2022-10-06T12:54:23.311Z,20.38
2022-10-06T12:56:59.056Z,23.77
2022-10-06T12:59:34.921Z,21.45
2022-10-06T13:02:08.046Z,21.10
2022-10-06T13:04:45.217Z,21.25
2022-10-06T13:07:16.180Z,22.90
2022-10-06T13:09:43.544Z,21.38
2022-10-06T13:12:32.607Z,15.85
2022-10-06T13:15:34.522Z,26.48
2022-10-06T13:18:07.443Z,26.40
2022-10-06T13:20:41.906Z,18.55
2022-10-06T13:23:26.802Z,21.25
2022-10-06T13:26:08.607Z,21.73
2022-10-06T13:28:44.317Z,20.55
2022-10-06T13:31:27.429Z,20.95
2022-10-06T13:34:02.235Z,23.23
2022-10-06T13:36:30.503Z,22.70
2022-10-06T13:38:57.374Z,21.13
2022-10-06T13:41:27.089Z,21.08
2022-10-06T13:43:58.756Z,19.65
2022-10-06T13:46:28.344Z,23.05
2022-10-06T13:49:05.734Z,23.65
2022-10-06T13:51:33.343Z,19.83
2022-10-06T13:54:07.179Z,28.02
2022-10-06T13:56:40.115Z,24.13
2022-10-06T13:59:31.309Z,20.35
2022-10-06T14:02:13.960Z,18.95
2022-10-06T14:04:40.774Z,23.67
2022-10-06T14:07:13.059Z,21.05
2022-10-06T14:09:41.015Z,22.85
2022-10-06T14:12:20.539Z,25.42
2022-10-06T14:14:51.040Z,24.13
2022-10-06T14:17:28.213Z,24.47
2022-10-06T14:19:54.923Z,20.23
2022-10-06T14:22:29.746Z,23.67
2022-10-06T14:24:56.365Z,25.83
2022-10-06T14:27:23.005Z,24.00
2022-10-06T14:29:49.659Z,22.15
2022-10-06T14:32:17.430Z,17.75
2022-10-06T14:34:44.488Z,19.70
2022-10-06T14:37:15.367Z,17.17
2022-10-06T14:39:43.849Z,16.58
2022-10-06T14:42:11.393Z,22.13
2022-10-06T14:44:38.590Z,24.92
2022-10-06T14:47:09.421Z,25.35
2022-10-06T14:49:37.812Z,23.48
2022-10-06T14:52:05.662Z,19.80
2022-10-06T14:54:34.369Z,21.27
2022-10-06T14:57:00.926Z,19.75
2022-10-06T14:59:28.042Z,17.52
2022-10-06T15:01:54.864Z,19.40
2022-10-06T15:04:25.305Z,20.95
2022-10-06T15:07:10.487Z,26.73
2022-10-06T15:09:37.352Z,23.50
2022-10-06T15:12:04.574Z,15.32
2022-10-06T15:14:31.336Z,19.52
2022-10-06T15:17:01.715Z,18.33
2022-10-06T15:19:28.416Z,21.40
2022-10-06T15:21:55.023Z,22.90
2022-10-06T15:24:21.965Z,23.27
2022-10-06T15:27:07.457Z,26.05
2022-10-06T15:29:37.450Z,25.13
2022-10-06T15:32:06.518Z,16.10
2022-10-06T15:34:37.965Z,14.60
2022-10-06T15:37:05.485Z,16.13
2022-10-06T15:39:35.599Z,27.15
2022-10-06T15:42:02.562Z,17.13
2022-10-06T15:44:32.629Z,19.88
2022-10-06T15:46:59.305Z,19.58
2022-10-06T15:49:29.733Z,17.52
2022-10-06T15:52:02.704Z,18.98
2022-10-06T15:54:33.904Z,22.23
2022-10-06T15:57:02.462Z,22.35
2022-10-06T15:59:32.603Z,18.35
2022-10-06T16:02:07.187Z,20.77
2022-10-06T16:04:38.388Z,17.27
2022-10-06T16:07:23.003Z,23.58
2022-10-06T16:09:51.912Z,18.08
2022-10-06T16:12:21.906Z,19.23
2022-10-06T16:14:48.957Z,17.15
2022-10-06T16:17:15.898Z,18.48
2022-10-06T16:19:53.032Z,15.25
2022-10-06T16:22:21.884Z,18.23
2022-10-06T16:24:49.815Z,25.88
2022-10-06T16:27:16.387Z,22.02
2022-10-06T16:29:43.103Z,21.30
2022-10-06T16:32:09.801Z,21.55
2022-10-06T16:34:36.565Z,19.85
2022-10-06T16:37:03.961Z,18.05
2022-10-06T16:39:30.629Z,19.90
2022-10-06T16:41:57.374Z,21.48
2022-10-06T16:44:23.995Z,17.60
2022-10-06T16:46:50.719Z,19.95
2022-10-06T16:49:17.483Z,23.83
2022-10-06T16:51:48.628Z,15.35
2022-10-06T16:54:17.417Z,18.40
2022-10-06T16:56:51.805Z,20.35
2022-10-06T16:59:20.914Z,14.88
2022-10-06T17:01:48.571Z,25.10
2022-10-06T17:04:23.826Z,17.52
2022-10-06T17:06:53.327Z,16.85
2022-10-06T17:09:22.538Z,19.88
2022-10-06T17:11:51.933Z,16.67
2022-10-06T17:14:19.731Z,25.75
2022-10-06T17:16:48.550Z,18.70
2022-10-06T17:19:17.023Z,18.75
2022-10-06T17:21:47.136Z,17.83
2022-10-06T17:24:17.836Z,18.25
2022-10-06T17:26:49.908Z,21.35
2022-10-06T17:29:23.519Z,20.73
2022-10-06T17:31:56.490Z,18.92
2022-10-06T17:34:26.477Z,20.15
2022-10-06T17:36:58.250Z,22.42
2022-10-06T17:39:25.058Z,21.58
2022-10-06T17:41:53.563Z,20.23
2022-10-06T17:44:27.350Z,21.58
2022-10-06T17:46:56.307Z,19.63
2022-10-06T17:49:24.312Z,24.70
2022-10-06T17:51:52.863Z,30.77
2022-10-06T17:54:21.517Z,24.50
2022-10-06T17:56:50.027Z,21.42
2022-10-06T17:59:21.157Z,20.05
2022-10-06T18:01:48.354Z,24.63
2022-10-06T18:04:18.511Z,24.15
2022-10-06T18:06:46.474Z,21.17
2022-10-06T18:09:14.599Z,20.60
2022-10-06T18:11:41.323Z,23.15
2022-10-06T18:14:08.875Z,20.10
2022-10-06T18:16:41.151Z,22.65
2022-10-06T18:19:16.931Z,26.27
2022-10-06T18:21:45.462Z,28.08
2022-10-06T18:24:16.218Z,25.25
2022-10-06T18:26:48.217Z,29.73
2022-10-06T18:29:20.984Z,27.85
2022-10-06T18:31:52.815Z,28.92
2022-10-06T18:37:06.971Z,25.00
2022-10-06T18:39:33.689Z,30.25
2022-10-06T18:42:03.010Z,27.15
2022-10-06T18:44:48.850Z,28.90
2022-10-06T18:47:34.433Z,33.00
2022-10-06T18:50:01.037Z,34.83
2022-10-06T18:52:27.539Z,30.83
2022-10-06T18:54:54.091Z,37.50
2022-10-06T18:57:27.197Z,30.40
2022-10-06T18:59:55.132Z,40.95
2022-10-06T19:02:21.981Z,33.53
2022-10-06T19:04:48.734Z,29.63
2022-10-06T19:07:15.499Z,33.42
2022-10-06T19:09:46.410Z,35.30
2022-10-06T19:14:47.351Z,32.85
2022-10-06T19:17:15.227Z,34.38
2022-10-06T19:19:51.500Z,35.75
2022-10-06T19:22:25.057Z,36.33
2022-10-06T19:24:52.748Z,32.10
2022-10-06T19:27:25.090Z,31.85
2022-10-06T19:29:54.828Z,33.60
2022-10-06T19:32:26.822Z,38.00
2022-10-06T19:34:58.933Z,35.92
2022-10-06T19:37:30.957Z,39.13
2022-10-06T19:39:58.346Z,38.08
2022-10-06T19:42:44.636Z,31.38
2022-10-06T19:45:21.520Z,37.75
2022-10-06T19:47:49.249Z,33.80
2022-10-06T19:50:17.423Z,34.67
2022-10-06T19:52:44.818Z,39.33
2022-10-06T19:55:12.101Z,36.30
2022-10-06T19:57:41.214Z,36.25
2022-10-06T20:00:10.676Z,38.63
2022-10-06T20:02:42.173Z,34.88
2022-10-06T20:05:15.918Z,33.97
2022-10-06T20:07:45.802Z,37.75
2022-10-06T20:10:14.212Z,36.15
2022-10-06T20:12:42.097Z,35.15
2022-10-06T20:15:10.522Z,38.90
2022-10-06T20:17:39.918Z,36.05
2022-10-06T20:20:07.647Z,38.85
2022-10-06T20:22:35.066Z,38.05
2022-10-06T20:25:06.911Z,30.50
2022-10-06T20:27:35.085Z,34.42
2022-10-06T20:30:19.820Z,36.72
2022-10-06T20:32:46.932Z,33.17
2022-10-06T20:35:17.808Z,33.20
2022-10-06T20:37:47.152Z,34.17
2022-10-06T20:40:32.706Z,29.08
2022-10-06T20:43:00.875Z,32.38
2022-10-06T20:45:27.466Z,27.70
2022-10-06T20:47:54.059Z,26.13
2022-10-06T20:50:21.361Z,33.17
2022-10-06T20:52:48.124Z,30.92
2022-10-06T20:55:17.709Z,32.97
2022-10-06T20:57:48.497Z,33.63
2022-10-06T21:00:15.710Z,31.48
2022-10-06T21:02:42.486Z,37.30
2022-10-06T21:05:12.181Z,35.70
2022-10-06T21:07:40.107Z,40.92
2022-10-06T21:10:07.752Z,40.90
2022-10-06T21:12:34.513Z,42.65
2022-10-06T21:15:01.372Z,39.13
2022-10-06T21:17:27.998Z,42.10
2022-10-06T21:19:55.091Z,50.50
2022-10-06T21:22:22.200Z,46.45
2022-10-06T21:24:50.098Z,47.40
2022-10-06T21:27:18.999Z,47.63
2022-10-06T21:29:47.752Z,48.05
2022-10-06T21:32:14.729Z,45.75
2022-10-06T21:34:41.343Z,49.67
2022-10-06T21:37:07.981Z,44.63
2022-10-06T21:39:34.885Z,40.58
2022-10-06T21:42:01.730Z,43.72
2022-10-06T21:44:28.521Z,41.80
2022-10-06T21:46:56.077Z,53.35
2022-10-06T21:49:24.882Z,39.42
2022-10-06T21:51:54.087Z,42.72
2022-10-06T21:54:54.071Z,42.35
2022-10-06T21:57:20.767Z,38.47
2022-10-06T21:59:47.651Z,42.50
2022-10-06T22:02:20.360Z,43.60
2022-10-06T22:04:47.011Z,40.83
2022-10-06T22:07:14.970Z,41.13
2022-10-06T22:09:41.808Z,39.45
2022-10-06T22:12:08.586Z,52.72
2022-10-06T22:14:37.981Z,50.38
2022-10-06T22:17:08.668Z,51.87
2022-10-06T22:19:35.354Z,48.35
2022-10-06T22:22:03.432Z,49.25
2022-10-06T22:24:32.991Z,48.97
2022-10-06T22:27:01.822Z,54.40
2022-10-06T22:29:31.755Z,43.22
2022-10-06T22:31:58.913Z,41.13
2022-10-06T22:34:26.523Z,53.20
2022-10-06T22:37:20.698Z,52.72
2022-10-06T22:39:49.408Z,47.33
2022-10-06T22:42:16.152Z,41.88
2022-10-06T22:44:44.129Z,34.75
2022-10-06T22:47:10.824Z,31.80
2022-10-06T22:49:37.440Z,29.13
2022-10-06T22:52:04.284Z,29.55
2022-10-06T22:54:32.328Z,30.30
2022-10-06T22:56:59.063Z,27.60
2022-10-06T22:59:26.186Z,23.95
2022-10-06T23:01:54.138Z,24.63
2022-10-06T23:04:20.985Z,22.67
2022-10-06T23:06:47.805Z,22.83
2022-10-06T23:09:16.569Z,24.38
2022-10-06T23:11:43.305Z,24.65
2022-10-06T23:14:10.179Z,26.65
2022-10-06T23:16:36.857Z,23.65
2022-10-06T23:19:03.734Z,24.33
2022-10-06T23:21:30.427Z,24.73
2022-10-06T23:24:00.195Z,22.80
2022-10-06T23:26:27.919Z,26.73
2022-10-06T23:28:59.879Z,21.50
2022-10-06T23:31:27.891Z,23.10
2022-10-06T23:33:58.239Z,25.77
2022-10-06T23:36:25.044Z,23.77
2022-10-06T23:38:51.831Z,25.23
2022-10-06T23:41:18.936Z,22.27
2022-10-06T23:43:46.074Z,23.63
2022-10-06T23:46:13.452Z,25.23
2022-10-06T23:48:40.234Z,27.60
2022-10-06T23:51:12.944Z,23.98
2022-10-06T23:53:40.104Z,25.92
2022-10-06T23:56:07.326Z,26.30
2022-10-06T23:58:34.327Z,31.00
